CYNL

SPECI CYNL 281825Z AUTO 15014G19KT 3SM VV008 05/05 A2966 RMK AO1 PRESFR SLP063
SPECI
LOCATION
CYNL
DATE - TIME
281825Z
WIND
150 TRUE @ 14 KNOTS GUSTS 19 KNOTS
VISIBILITY
3SM
RUNWAY VISUAL RANGE
NOT REPORTED
WEATHER
CLOUDINESS
TEMP / DEWPOINT
5 ºC / 5 ºC
ALTIMETER
29.66 in. Hg
RECENT WEATHER
NOT REPORTED
WIND SHEAR
NOT REPORTED
REMARKS
RMK AO1 PRESFR SLP063
SEA LEVEL PRESSURE: hPa

CYNL

SPECI CYNL 281824Z AUTO 15013G19KT 2SM VV008 05/05 A2966 RMK AO1 PRESFR SLP064
SPECI
LOCATION
CYNL
DATE - TIME
281824Z
WIND
150 TRUE @ 13 KNOTS GUSTS 19 KNOTS
VISIBILITY
2SM
RUNWAY VISUAL RANGE
NOT REPORTED
WEATHER
CLOUDINESS
TEMP / DEWPOINT
5 ºC / 5 ºC
ALTIMETER
29.66 in. Hg
RECENT WEATHER
NOT REPORTED
WIND SHEAR
NOT REPORTED
REMARKS
RMK AO1 PRESFR SLP064
SEA LEVEL PRESSURE: hPa

CYNL

SPECI CYNL 281820Z AUTO 16013G20KT 1 3/4SM VV008 05/05 A2967 RMK AO1 PRESFR SLP066
SPECI
LOCATION
CYNL
DATE - TIME
281820Z
WIND
160 TRUE @ 13 KNOTS GUSTS 20 KNOTS
VISIBILITY
1 3/4SM
RUNWAY VISUAL RANGE
NOT REPORTED
WEATHER
CLOUDINESS
TEMP / DEWPOINT
5 ºC / 5 ºC
ALTIMETER
29.67 in. Hg
RECENT WEATHER
NOT REPORTED
WIND SHEAR
NOT REPORTED
REMARKS
RMK AO1 PRESFR SLP066
SEA LEVEL PRESSURE: hPa

Your time UTC time
 
 
Weather data provided by AXYS Technologies Inc., www.axystechnologies.com
 
Station History